sensor_id;sensor_type;location;lat;lon;timestamp;P1;durP1;ratioP1;P2;durP2;ratioP2
64609;SDS011;51019;46.090;6.350;2023-08-31T00:01:11;11.48;;;3.13;;
64609;SDS011;51019;46.090;6.350;2023-08-31T00:03:39;11.57;;;3.67;;
64609;SDS011;51019;46.090;6.350;2023-08-31T00:06:06;10.55;;;3.50;;
64609;SDS011;51019;46.090;6.350;2023-08-31T00:08:35;11.27;;;3.33;;
64609;SDS011;51019;46.090;6.350;2023-08-31T00:11:02;11.90;;;3.53;;
64609;SDS011;51019;46.090;6.350;2023-08-31T00:13:30;10.38;;;3.30;;
64609;SDS011;51019;46.090;6.350;2023-08-31T00:16:00;9.57;;;3.10;;
64609;SDS011;51019;46.090;6.350;2023-08-31T00:18:27;13.95;;;3.67;;
64609;SDS011;51019;46.090;6.350;2023-08-31T00:20:54;12.05;;;3.95;;
64609;SDS011;51019;46.090;6.350;2023-08-31T00:23:21;15.20;;;4.50;;
64609;SDS011;51019;46.090;6.350;2023-08-31T00:25:50;11.70;;;3.90;;
64609;SDS011;51019;46.090;6.350;2023-08-31T00:28:18;13.48;;;3.70;;
64609;SDS011;51019;46.090;6.350;2023-08-31T00:30:47;12.20;;;3.40;;
64609;SDS011;51019;46.090;6.350;2023-08-31T00:33:14;10.27;;;3.20;;
64609;SDS011;51019;46.090;6.350;2023-08-31T00:35:41;11.23;;;3.15;;
64609;SDS011;51019;46.090;6.350;2023-08-31T00:38:09;11.88;;;3.58;;
64609;SDS011;51019;46.090;6.350;2023-08-31T00:40:38;12.35;;;3.17;;
64609;SDS011;51019;46.090;6.350;2023-08-31T00:43:09;11.15;;;2.95;;
64609;SDS011;51019;46.090;6.350;2023-08-31T00:45:37;9.88;;;3.28;;
64609;SDS011;51019;46.090;6.350;2023-08-31T00:48:05;13.35;;;3.15;;
64609;SDS011;51019;46.090;6.350;2023-08-31T00:50:33;12.35;;;3.30;;
64609;SDS011;51019;46.090;6.350;2023-08-31T00:53:02;11.88;;;3.40;;
64609;SDS011;51019;46.090;6.350;2023-08-31T00:55:30;10.70;;;3.38;;
64609;SDS011;51019;46.090;6.350;2023-08-31T00:57:58;12.48;;;3.40;;
64609;SDS011;51019;46.090;6.350;2023-08-31T01:00:30;11.93;;;3.17;;
64609;SDS011;51019;46.090;6.350;2023-08-31T01:03:08;10.15;;;3.05;;
64609;SDS011;51019;46.090;6.350;2023-08-31T01:05:41;10.77;;;3.17;;
64609;SDS011;51019;46.090;6.350;2023-08-31T01:08:19;12.15;;;3.67;;
64609;SDS011;51019;46.090;6.350;2023-08-31T01:10:55;10.38;;;3.20;;
64609;SDS011;51019;46.090;6.350;2023-08-31T01:13:30;11.05;;;3.50;;
64609;SDS011;51019;46.090;6.350;2023-08-31T01:16:03;11.73;;;3.05;;
64609;SDS011;51019;46.090;6.350;2023-08-31T01:18:34;11.07;;;3.10;;
64609;SDS011;51019;46.090;6.350;2023-08-31T01:21:06;12.18;;;3.40;;
64609;SDS011;51019;46.090;6.350;2023-08-31T01:23:52;11.73;;;3.58;;
64609;SDS011;51019;46.090;6.350;2023-08-31T01:26:20;13.73;;;3.15;;
64609;SDS011;51019;46.090;6.350;2023-08-31T01:28:47;9.73;;;2.97;;
64609;SDS011;51019;46.090;6.350;2023-08-31T01:31:15;11.30;;;3.25;;
64609;SDS011;51019;46.090;6.350;2023-08-31T01:33:43;11.75;;;3.42;;
64609;SDS011;51019;46.090;6.350;2023-08-31T01:36:12;12.43;;;3.13;;
64609;SDS011;51019;46.090;6.350;2023-08-31T01:38:45;10.73;;;3.10;;
64609;SDS011;51019;46.090;6.350;2023-08-31T01:41:21;12.88;;;3.03;;
64609;SDS011;51019;46.090;6.350;2023-08-31T01:43:50;10.10;;;3.58;;
64609;SDS011;51019;46.090;6.350;2023-08-31T01:46:19;10.93;;;3.63;;
64609;SDS011;51019;46.090;6.350;2023-08-31T01:48:46;10.48;;;3.70;;
64609;SDS011;51019;46.090;6.350;2023-08-31T01:51:13;10.30;;;3.20;;
64609;SDS011;51019;46.090;6.350;2023-08-31T01:53:40;11.38;;;3.33;;
64609;SDS011;51019;46.090;6.350;2023-08-31T01:56:07;10.98;;;3.63;;
64609;SDS011;51019;46.090;6.350;2023-08-31T01:58:36;11.70;;;3.72;;
64609;SDS011;51019;46.090;6.350;2023-08-31T02:01:03;10.73;;;3.45;;
64609;SDS011;51019;46.090;6.350;2023-08-31T02:03:30;10.60;;;3.47;;
64609;SDS011;51019;46.090;6.350;2023-08-31T02:05:57;9.98;;;2.97;;
64609;SDS011;51019;46.090;6.350;2023-08-31T02:08:24;10.88;;;2.95;;
64609;SDS011;51019;46.090;6.350;2023-08-31T02:10:51;11.48;;;3.88;;
64609;SDS011;51019;46.090;6.350;2023-08-31T02:13:19;15.55;;;3.47;;
64609;SDS011;51019;46.090;6.350;2023-08-31T02:15:50;10.48;;;3.35;;
64609;SDS011;51019;46.090;6.350;2023-08-31T02:18:18;10.63;;;3.40;;
64609;SDS011;51019;46.090;6.350;2023-08-31T02:20:45;9.93;;;3.03;;
64609;SDS011;51019;46.090;6.350;2023-08-31T02:23:12;11.07;;;3.58;;
64609;SDS011;51019;46.090;6.350;2023-08-31T02:25:39;10.30;;;3.25;;
64609;SDS011;51019;46.090;6.350;2023-08-31T02:28:06;12.23;;;3.28;;
64609;SDS011;51019;46.090;6.350;2023-08-31T02:30:33;10.15;;;3.20;;
64609;SDS011;51019;46.090;6.350;2023-08-31T02:33:03;11.20;;;3.17;;
64609;SDS011;51019;46.090;6.350;2023-08-31T02:35:30;10.20;;;3.45;;
64609;SDS011;51019;46.090;6.350;2023-08-31T02:37:57;10.80;;;3.00;;
64609;SDS011;51019;46.090;6.350;2023-08-31T02:40:24;10.48;;;3.20;;
64609;SDS011;51019;46.090;6.350;2023-08-31T02:42:51;11.25;;;3.60;;
64609;SDS011;51019;46.090;6.350;2023-08-31T02:45:18;11.15;;;3.85;;
64609;SDS011;51019;46.090;6.350;2023-08-31T02:47:45;12.38;;;3.75;;
64609;SDS011;51019;46.090;6.350;2023-08-31T02:50:16;13.70;;;3.50;;
64609;SDS011;51019;46.090;6.350;2023-08-31T02:52:43;11.18;;;3.35;;
64609;SDS011;51019;46.090;6.350;2023-08-31T02:55:11;10.52;;;2.75;;
64609;SDS011;51019;46.090;6.350;2023-08-31T02:57:38;10.23;;;2.92;;
64609;SDS011;51019;46.090;6.350;2023-08-31T03:00:05;10.35;;;3.20;;
64609;SDS011;51019;46.090;6.350;2023-08-31T03:05:04;10.93;;;3.60;;
64609;SDS011;51019;46.090;6.350;2023-08-31T03:07:33;12.00;;;3.17;;
64609;SDS011;51019;46.090;6.350;2023-08-31T03:10:00;10.43;;;3.20;;
64609;SDS011;51019;46.090;6.350;2023-08-31T03:12:28;11.27;;;3.38;;
64609;SDS011;51019;46.090;6.350;2023-08-31T03:14:55;9.82;;;3.42;;
64609;SDS011;51019;46.090;6.350;2023-08-31T03:17:22;10.25;;;3.00;;
64609;SDS011;51019;46.090;6.350;2023-08-31T03:19:49;10.95;;;3.25;;
64609;SDS011;51019;46.090;6.350;2023-08-31T03:22:16;11.18;;;3.30;;
64609;SDS011;51019;46.090;6.350;2023-08-31T03:24:45;11.45;;;3.40;;
64609;SDS011;51019;46.090;6.350;2023-08-31T03:27:12;11.50;;;3.42;;
64609;SDS011;51019;46.090;6.350;2023-08-31T03:29:41;11.30;;;3.60;;
64609;SDS011;51019;46.090;6.350;2023-08-31T03:32:08;11.43;;;3.47;;
64609;SDS011;51019;46.090;6.350;2023-08-31T03:34:34;9.82;;;3.53;;
64609;SDS011;51019;46.090;6.350;2023-08-31T03:37:01;11.13;;;3.65;;
64609;SDS011;51019;46.090;6.350;2023-08-31T03:39:28;12.68;;;3.80;;
64609;SDS011;51019;46.090;6.350;2023-08-31T03:41:58;13.82;;;3.50;;
64609;SDS011;51019;46.090;6.350;2023-08-31T03:44:25;11.73;;;3.45;;
64609;SDS011;51019;46.090;6.350;2023-08-31T03:46:52;13.27;;;3.42;;
64609;SDS011;51019;46.090;6.350;2023-08-31T03:49:20;11.90;;;3.75;;
64609;SDS011;51019;46.090;6.350;2023-08-31T03:51:47;11.77;;;3.55;;
64609;SDS011;51019;46.090;6.350;2023-08-31T03:54:13;13.68;;;3.75;;
64609;SDS011;51019;46.090;6.350;2023-08-31T03:56:41;10.45;;;3.28;;
64609;SDS011;51019;46.090;6.350;2023-08-31T03:59:09;11.75;;;3.65;;
64609;SDS011;51019;46.090;6.350;2023-08-31T04:01:37;11.98;;;3.55;;
64609;SDS011;51019;46.090;6.350;2023-08-31T04:04:04;12.15;;;3.85;;
64609;SDS011;51019;46.090;6.350;2023-08-31T04:06:33;12.93;;;5.00;;
64609;SDS011;51019;46.090;6.350;2023-08-31T04:09:00;12.13;;;4.60;;
64609;SDS011;51019;46.090;6.350;2023-08-31T04:11:28;12.57;;;4.20;;
64609;SDS011;51019;46.090;6.350;2023-08-31T04:13:55;13.70;;;5.32;;
64609;SDS011;51019;46.090;6.350;2023-08-31T04:16:23;14.32;;;5.57;;
64609;SDS011;51019;46.090;6.350;2023-08-31T04:18:50;20.20;;;9.50;;
64609;SDS011;51019;46.090;6.350;2023-08-31T04:21:17;25.83;;;13.98;;
64609;SDS011;51019;46.090;6.350;2023-08-31T04:23:44;33.17;;;15.45;;
64609;SDS011;51019;46.090;6.350;2023-08-31T04:26:11;30.83;;;15.35;;
64609;SDS011;51019;46.090;6.350;2023-08-31T04:28:39;28.58;;;14.25;;
64609;SDS011;51019;46.090;6.350;2023-08-31T04:31:07;27.20;;;14.32;;
64609;SDS011;51019;46.090;6.350;2023-08-31T04:33:37;27.05;;;12.65;;
64609;SDS011;51019;46.090;6.350;2023-08-31T04:36:05;22.38;;;11.02;;
64609;SDS011;51019;46.090;6.350;2023-08-31T04:38:32;21.42;;;11.18;;
64609;SDS011;51019;46.090;6.350;2023-08-31T04:41:00;20.65;;;10.38;;
64609;SDS011;51019;46.090;6.350;2023-08-31T04:43:27;15.95;;;6.78;;
64609;SDS011;51019;46.090;6.350;2023-08-31T04:45:54;19.05;;;7.47;;
64609;SDS011;51019;46.090;6.350;2023-08-31T04:48:21;14.68;;;6.05;;
64609;SDS011;51019;46.090;6.350;2023-08-31T04:50:51;18.60;;;7.75;;
64609;SDS011;51019;46.090;6.350;2023-08-31T04:53:22;19.27;;;8.88;;
64609;SDS011;51019;46.090;6.350;2023-08-31T04:55:49;20.67;;;8.82;;
64609;SDS011;51019;46.090;6.350;2023-08-31T04:58:16;18.60;;;7.95;;
64609;SDS011;51019;46.090;6.350;2023-08-31T05:00:44;20.77;;;8.50;;
64609;SDS011;51019;46.090;6.350;2023-08-31T05:03:12;20.92;;;9.55;;
64609;SDS011;51019;46.090;6.350;2023-08-31T05:05:40;19.35;;;7.90;;
64609;SDS011;51019;46.090;6.350;2023-08-31T05:08:09;16.20;;;7.82;;
64609;SDS011;51019;46.090;6.350;2023-08-31T05:10:36;16.95;;;7.38;;
64609;SDS011;51019;46.090;6.350;2023-08-31T05:13:04;16.17;;;6.90;;
64609;SDS011;51019;46.090;6.350;2023-08-31T05:15:31;18.63;;;7.82;;
64609;SDS011;51019;46.090;6.350;2023-08-31T05:17:58;17.25;;;6.88;;
64609;SDS011;51019;46.090;6.350;2023-08-31T05:20:25;17.63;;;6.93;;
64609;SDS011;51019;46.090;6.350;2023-08-31T05:22:52;17.50;;;7.32;;
64609;SDS011;51019;46.090;6.350;2023-08-31T05:25:21;17.55;;;6.70;;
64609;SDS011;51019;46.090;6.350;2023-08-31T05:27:48;16.80;;;6.05;;
64609;SDS011;51019;46.090;6.350;2023-08-31T05:30:15;14.25;;;4.95;;
64609;SDS011;51019;46.090;6.350;2023-08-31T05:32:42;15.57;;;5.45;;
64609;SDS011;51019;46.090;6.350;2023-08-31T05:35:09;15.57;;;5.30;;
64609;SDS011;51019;46.090;6.350;2023-08-31T05:37:36;14.35;;;5.55;;
64609;SDS011;51019;46.090;6.350;2023-08-31T05:40:04;15.55;;;5.40;;
64609;SDS011;51019;46.090;6.350;2023-08-31T05:42:37;16.42;;;5.28;;
64609;SDS011;51019;46.090;6.350;2023-08-31T05:45:04;12.32;;;4.50;;
64609;SDS011;51019;46.090;6.350;2023-08-31T05:47:32;11.75;;;4.40;;
64609;SDS011;51019;46.090;6.350;2023-08-31T05:49:59;14.68;;;5.60;;
64609;SDS011;51019;46.090;6.350;2023-08-31T05:52:27;14.80;;;5.30;;
64609;SDS011;51019;46.090;6.350;2023-08-31T05:54:54;14.15;;;4.95;;
64609;SDS011;51019;46.090;6.350;2023-08-31T05:57:22;13.75;;;5.10;;
64609;SDS011;51019;46.090;6.350;2023-08-31T05:59:51;14.48;;;4.90;;
64609;SDS011;51019;46.090;6.350;2023-08-31T06:02:18;15.27;;;4.80;;
64609;SDS011;51019;46.090;6.350;2023-08-31T06:04:45;12.70;;;5.05;;
64609;SDS011;51019;46.090;6.350;2023-08-31T06:07:12;15.70;;;4.85;;
64609;SDS011;51019;46.090;6.350;2023-08-31T06:09:39;15.07;;;4.68;;
64609;SDS011;51019;46.090;6.350;2023-08-31T06:12:06;13.50;;;4.40;;
64609;SDS011;51019;46.090;6.350;2023-08-31T06:14:33;11.63;;;4.15;;
64609;SDS011;51019;46.090;6.350;2023-08-31T06:17:02;15.43;;;4.50;;
64609;SDS011;51019;46.090;6.350;2023-08-31T06:19:29;13.60;;;5.30;;
64609;SDS011;51019;46.090;6.350;2023-08-31T06:21:56;17.88;;;4.43;;
64609;SDS011;51019;46.090;6.350;2023-08-31T06:24:23;14.10;;;4.38;;
64609;SDS011;51019;46.090;6.350;2023-08-31T06:26:50;12.77;;;4.43;;
64609;SDS011;51019;46.090;6.350;2023-08-31T06:29:20;14.68;;;4.63;;
64609;SDS011;51019;46.090;6.350;2023-08-31T06:31:47;15.00;;;4.72;;
64609;SDS011;51019;46.090;6.350;2023-08-31T06:34:16;18.35;;;5.45;;
64609;SDS011;51019;46.090;6.350;2023-08-31T06:36:43;13.90;;;4.30;;
64609;SDS011;51019;46.090;6.350;2023-08-31T06:39:10;11.30;;;3.95;;
64609;SDS011;51019;46.090;6.350;2023-08-31T06:41:37;12.90;;;4.00;;
64609;SDS011;51019;46.090;6.350;2023-08-31T06:44:04;12.98;;;4.30;;
64609;SDS011;51019;46.090;6.350;2023-08-31T06:46:31;13.38;;;4.20;;
64609;SDS011;51019;46.090;6.350;2023-08-31T06:49:03;12.85;;;3.70;;
64609;SDS011;51019;46.090;6.350;2023-08-31T06:51:32;14.85;;;4.05;;
64609;SDS011;51019;46.090;6.350;2023-08-31T06:53:59;11.00;;;3.55;;
64609;SDS011;51019;46.090;6.350;2023-08-31T06:56:31;12.82;;;3.50;;
64609;SDS011;51019;46.090;6.350;2023-08-31T06:58:59;14.07;;;4.00;;
64609;SDS011;51019;46.090;6.350;2023-08-31T07:01:28;12.88;;;4.30;;
64609;SDS011;51019;46.090;6.350;2023-08-31T07:03:55;10.93;;;3.83;;
64609;SDS011;51019;46.090;6.350;2023-08-31T07:06:22;10.75;;;3.13;;
64609;SDS011;51019;46.090;6.350;2023-08-31T07:08:51;14.25;;;3.58;;
64609;SDS011;51019;46.090;6.350;2023-08-31T07:11:18;11.05;;;3.70;;
64609;SDS011;51019;46.090;6.350;2023-08-31T07:13:45;14.32;;;4.15;;
64609;SDS011;51019;46.090;6.350;2023-08-31T07:16:13;12.88;;;3.90;;
64609;SDS011;51019;46.090;6.350;2023-08-31T07:18:40;15.18;;;3.60;;
64609;SDS011;51019;46.090;6.350;2023-08-31T07:21:07;12.35;;;3.47;;
64609;SDS011;51019;46.090;6.350;2023-08-31T07:23:34;13.38;;;4.03;;
64609;SDS011;51019;46.090;6.350;2023-08-31T07:26:04;13.68;;;3.55;;
64609;SDS011;51019;46.090;6.350;2023-08-31T07:28:31;13.32;;;3.17;;
64609;SDS011;51019;46.090;6.350;2023-08-31T07:31:02;10.55;;;3.35;;
64609;SDS011;51019;46.090;6.350;2023-08-31T07:33:30;10.75;;;3.30;;
64609;SDS011;51019;46.090;6.350;2023-08-31T07:35:57;11.73;;;3.08;;
64609;SDS011;51019;46.090;6.350;2023-08-31T07:38:25;10.07;;;3.35;;
64609;SDS011;51019;46.090;6.350;2023-08-31T07:40:52;13.88;;;3.28;;
64609;SDS011;51019;46.090;6.350;2023-08-31T07:43:21;11.40;;;3.30;;
64609;SDS011;51019;46.090;6.350;2023-08-31T07:45:48;10.85;;;3.05;;
64609;SDS011;51019;46.090;6.350;2023-08-31T07:48:16;12.88;;;3.00;;
64609;SDS011;51019;46.090;6.350;2023-08-31T07:50:43;9.35;;;2.83;;
64609;SDS011;51019;46.090;6.350;2023-08-31T07:53:11;12.48;;;2.88;;
64609;SDS011;51019;46.090;6.350;2023-08-31T07:55:39;10.45;;;2.95;;
64609;SDS011;51019;46.090;6.350;2023-08-31T07:58:06;13.02;;;3.15;;
64609;SDS011;51019;46.090;6.350;2023-08-31T08:00:35;10.02;;;3.28;;
64609;SDS011;51019;46.090;6.350;2023-08-31T08:03:03;10.65;;;2.80;;
64609;SDS011;51019;46.090;6.350;2023-08-31T08:05:30;9.63;;;2.85;;
64609;SDS011;51019;46.090;6.350;2023-08-31T08:07:57;11.23;;;3.30;;
64609;SDS011;51019;46.090;6.350;2023-08-31T08:10:25;12.75;;;3.13;;
64609;SDS011;51019;46.090;6.350;2023-08-31T08:12:52;11.02;;;2.88;;
64609;SDS011;51019;46.090;6.350;2023-08-31T08:15:21;13.60;;;3.33;;
64609;SDS011;51019;46.090;6.350;2023-08-31T08:17:50;10.75;;;2.90;;
64609;SDS011;51019;46.090;6.350;2023-08-31T08:20:19;9.43;;;2.70;;
64609;SDS011;51019;46.090;6.350;2023-08-31T08:22:46;9.20;;;2.63;;
64609;SDS011;51019;46.090;6.350;2023-08-31T08:25:14;9.43;;;2.45;;
64609;SDS011;51019;46.090;6.350;2023-08-31T08:27:41;10.73;;;2.60;;
64609;SDS011;51019;46.090;6.350;2023-08-31T08:30:08;11.15;;;2.70;;
64609;SDS011;51019;46.090;6.350;2023-08-31T08:32:36;9.43;;;2.30;;
64609;SDS011;51019;46.090;6.350;2023-08-31T08:35:06;10.48;;;2.42;;
64609;SDS011;51019;46.090;6.350;2023-08-31T08:37:33;9.52;;;2.50;;
64609;SDS011;51019;46.090;6.350;2023-08-31T08:40:01;10.27;;;2.63;;
64609;SDS011;51019;46.090;6.350;2023-08-31T08:42:29;10.18;;;2.38;;
64609;SDS011;51019;46.090;6.350;2023-08-31T08:44:58;10.00;;;2.08;;
64609;SDS011;51019;46.090;6.350;2023-08-31T08:47:25;7.57;;;2.13;;
64609;SDS011;51019;46.090;6.350;2023-08-31T08:49:53;8.40;;;2.10;;
64609;SDS011;51019;46.090;6.350;2023-08-31T08:52:22;8.18;;;2.22;;
64609;SDS011;51019;46.090;6.350;2023-08-31T08:54:50;8.52;;;2.17;;
64609;SDS011;51019;46.090;6.350;2023-08-31T08:57:17;10.00;;;2.50;;
64609;SDS011;51019;46.090;6.350;2023-08-31T08:59:44;7.95;;;2.30;;
64609;SDS011;51019;46.090;6.350;2023-08-31T09:02:12;8.98;;;2.30;;
64609;SDS011;51019;46.090;6.350;2023-08-31T09:04:39;7.38;;;2.10;;
64609;SDS011;51019;46.090;6.350;2023-08-31T09:07:06;10.90;;;2.30;;
64609;SDS011;51019;46.090;6.350;2023-08-31T09:09:37;6.97;;;2.00;;
64609;SDS011;51019;46.090;6.350;2023-08-31T09:12:15;7.97;;;2.10;;
64609;SDS011;51019;46.090;6.350;2023-08-31T09:14:56;9.75;;;2.20;;
64609;SDS011;51019;46.090;6.350;2023-08-31T09:17:24;8.98;;;2.33;;
64609;SDS011;51019;46.090;6.350;2023-08-31T09:19:59;8.32;;;2.05;;
64609;SDS011;51019;46.090;6.350;2023-08-31T09:22:28;9.60;;;2.20;;
64609;SDS011;51019;46.090;6.350;2023-08-31T09:24:57;7.90;;;2.10;;
64609;SDS011;51019;46.090;6.350;2023-08-31T09:27:24;10.07;;;2.17;;
64609;SDS011;51019;46.090;6.350;2023-08-31T09:29:54;8.63;;;2.13;;
64609;SDS011;51019;46.090;6.350;2023-08-31T09:32:21;7.97;;;2.20;;
64609;SDS011;51019;46.090;6.350;2023-08-31T09:34:48;8.30;;;2.20;;
64609;SDS011;51019;46.090;6.350;2023-08-31T09:37:15;6.28;;;2.08;;
64609;SDS011;51019;46.090;6.350;2023-08-31T09:39:44;10.55;;;2.15;;
64609;SDS011;51019;46.090;6.350;2023-08-31T09:42:12;5.18;;;1.58;;
64609;SDS011;51019;46.090;6.350;2023-08-31T09:44:40;7.97;;;1.92;;
64609;SDS011;51019;46.090;6.350;2023-08-31T09:47:09;6.85;;;1.95;;
64609;SDS011;51019;46.090;6.350;2023-08-31T09:49:37;8.50;;;2.38;;
64609;SDS011;51019;46.090;6.350;2023-08-31T09:52:07;7.65;;;2.00;;
64609;SDS011;51019;46.090;6.350;2023-08-31T09:54:36;6.70;;;1.90;;
64609;SDS011;51019;46.090;6.350;2023-08-31T09:57:04;7.60;;;2.08;;
64609;SDS011;51019;46.090;6.350;2023-08-31T09:59:33;7.18;;;2.03;;
64609;SDS011;51019;46.090;6.350;2023-08-31T10:02:01;8.75;;;2.22;;
64609;SDS011;51019;46.090;6.350;2023-08-31T10:04:29;5.82;;;1.80;;
64609;SDS011;51019;46.090;6.350;2023-08-31T10:06:58;7.35;;;2.08;;
64609;SDS011;51019;46.090;6.350;2023-08-31T10:09:26;6.93;;;2.00;;
64609;SDS011;51019;46.090;6.350;2023-08-31T10:11:54;7.18;;;2.05;;
64609;SDS011;51019;46.090;6.350;2023-08-31T10:14:22;8.90;;;2.10;;
64609;SDS011;51019;46.090;6.350;2023-08-31T10:16:51;9.63;;;2.40;;
64609;SDS011;51019;46.090;6.350;2023-08-31T10:19:20;10.15;;;2.50;;
64609;SDS011;51019;46.090;6.350;2023-08-31T10:21:47;7.18;;;2.25;;
64609;SDS011;51019;46.090;6.350;2023-08-31T10:24:14;6.57;;;2.22;;
64609;SDS011;51019;46.090;6.350;2023-08-31T10:26:41;8.25;;;2.20;;
64609;SDS011;51019;46.090;6.350;2023-08-31T10:29:08;7.88;;;2.25;;
64609;SDS011;51019;46.090;6.350;2023-08-31T10:31:58;7.97;;;2.10;;
64609;SDS011;51019;46.090;6.350;2023-08-31T10:34:34;7.70;;;2.17;;
64609;SDS011;51019;46.090;6.350;2023-08-31T10:37:02;9.30;;;2.58;;
64609;SDS011;51019;46.090;6.350;2023-08-31T10:39:48;8.32;;;2.22;;
64609;SDS011;51019;46.090;6.350;2023-08-31T10:42:15;8.00;;;2.45;;
64609;SDS011;51019;46.090;6.350;2023-08-31T10:44:42;8.77;;;2.38;;
64609;SDS011;51019;46.090;6.350;2023-08-31T10:47:11;8.35;;;2.25;;
64609;SDS011;51019;46.090;6.350;2023-08-31T10:49:39;8.73;;;2.10;;
64609;SDS011;51019;46.090;6.350;2023-08-31T10:52:19;8.48;;;2.45;;
64609;SDS011;51019;46.090;6.350;2023-08-31T10:54:46;8.48;;;2.50;;
64609;SDS011;51019;46.090;6.350;2023-08-31T10:57:14;8.40;;;2.10;;
64609;SDS011;51019;46.090;6.350;2023-08-31T10:59:43;9.60;;;2.45;;
64609;SDS011;51019;46.090;6.350;2023-08-31T11:05:00;8.55;;;2.33;;
64609;SDS011;51019;46.090;6.350;2023-08-31T11:07:30;10.68;;;2.47;;
64609;SDS011;51019;46.090;6.350;2023-08-31T11:10:10;10.13;;;2.30;;
64609;SDS011;51019;46.090;6.350;2023-08-31T11:12:42;8.73;;;2.30;;
64609;SDS011;51019;46.090;6.350;2023-08-31T11:15:13;6.70;;;1.90;;
64609;SDS011;51019;46.090;6.350;2023-08-31T11:17:43;7.30;;;2.10;;
64609;SDS011;51019;46.090;6.350;2023-08-31T11:20:13;7.63;;;2.17;;
64609;SDS011;51019;46.090;6.350;2023-08-31T11:22:42;8.45;;;2.30;;
64609;SDS011;51019;46.090;6.350;2023-08-31T11:25:10;10.63;;;2.65;;
64609;SDS011;51019;46.090;6.350;2023-08-31T11:27:38;7.75;;;2.17;;
64609;SDS011;51019;46.090;6.350;2023-08-31T11:30:11;8.65;;;2.00;;
64609;SDS011;51019;46.090;6.350;2023-08-31T11:32:45;8.52;;;2.28;;
64609;SDS011;51019;46.090;6.350;2023-08-31T11:35:14;7.43;;;2.50;;
64609;SDS011;51019;46.090;6.350;2023-08-31T11:37:41;8.43;;;2.00;;
64609;SDS011;51019;46.090;6.350;2023-08-31T11:40:09;11.75;;;2.72;;
64609;SDS011;51019;46.090;6.350;2023-08-31T11:42:37;9.07;;;2.42;;
64609;SDS011;51019;46.090;6.350;2023-08-31T11:45:06;7.45;;;2.05;;
64609;SDS011;51019;46.090;6.350;2023-08-31T11:47:34;8.27;;;2.38;;
64609;SDS011;51019;46.090;6.350;2023-08-31T11:50:04;7.50;;;2.30;;
64609;SDS011;51019;46.090;6.350;2023-08-31T11:52:32;8.27;;;2.17;;
64609;SDS011;51019;46.090;6.350;2023-08-31T11:55:00;11.90;;;2.53;;
64609;SDS011;51019;46.090;6.350;2023-08-31T11:57:27;8.32;;;2.20;;
64609;SDS011;51019;46.090;6.350;2023-08-31T11:59:54;6.25;;;2.00;;
64609;SDS011;51019;46.090;6.350;2023-08-31T12:02:22;9.80;;;2.35;;
64609;SDS011;51019;46.090;6.350;2023-08-31T12:04:49;6.28;;;1.83;;
64609;SDS011;51019;46.090;6.350;2023-08-31T12:07:18;8.25;;;2.38;;
64609;SDS011;51019;46.090;6.350;2023-08-31T12:09:45;8.55;;;2.45;;
64609;SDS011;51019;46.090;6.350;2023-08-31T12:12:13;8.52;;;2.35;;
64609;SDS011;51019;46.090;6.350;2023-08-31T12:14:42;8.50;;;2.35;;
64609;SDS011;51019;46.090;6.350;2023-08-31T12:17:10;8.80;;;2.08;;
64609;SDS011;51019;46.090;6.350;2023-08-31T12:19:37;8.70;;;2.10;;
64609;SDS011;51019;46.090;6.350;2023-08-31T12:22:05;6.82;;;2.00;;
64609;SDS011;51019;46.090;6.350;2023-08-31T12:24:39;7.30;;;2.17;;
64609;SDS011;51019;46.090;6.350;2023-08-31T12:27:07;7.05;;;2.30;;
64609;SDS011;51019;46.090;6.350;2023-08-31T12:29:34;8.00;;;2.13;;
64609;SDS011;51019;46.090;6.350;2023-08-31T12:32:02;6.85;;;1.90;;
64609;SDS011;51019;46.090;6.350;2023-08-31T12:34:30;9.02;;;2.05;;
64609;SDS011;51019;46.090;6.350;2023-08-31T12:36:57;8.38;;;2.17;;
64609;SDS011;51019;46.090;6.350;2023-08-31T12:39:26;7.85;;;2.30;;
64609;SDS011;51019;46.090;6.350;2023-08-31T12:41:55;7.75;;;2.10;;
64609;SDS011;51019;46.090;6.350;2023-08-31T12:44:22;7.70;;;2.00;;
64609;SDS011;51019;46.090;6.350;2023-08-31T12:46:50;7.50;;;2.13;;
64609;SDS011;51019;46.090;6.350;2023-08-31T12:49:17;7.60;;;2.13;;
64609;SDS011;51019;46.090;6.350;2023-08-31T12:51:48;8.82;;;2.15;;
64609;SDS011;51019;46.090;6.350;2023-08-31T12:54:16;7.30;;;2.20;;
64609;SDS011;51019;46.090;6.350;2023-08-31T12:56:43;8.27;;;2.20;;
64609;SDS011;51019;46.090;6.350;2023-08-31T12:59:12;8.77;;;2.25;;
64609;SDS011;51019;46.090;6.350;2023-08-31T13:01:39;9.80;;;2.22;;
64609;SDS011;51019;46.090;6.350;2023-08-31T13:04:06;7.47;;;2.28;;
64609;SDS011;51019;46.090;6.350;2023-08-31T13:06:33;6.38;;;1.90;;
64609;SDS011;51019;46.090;6.350;2023-08-31T13:09:01;8.48;;;2.10;;
64609;SDS011;51019;46.090;6.350;2023-08-31T13:11:30;8.73;;;2.08;;
64609;SDS011;51019;46.090;6.350;2023-08-31T13:13:57;8.80;;;2.05;;
64609;SDS011;51019;46.090;6.350;2023-08-31T13:16:27;7.90;;;2.25;;
64609;SDS011;51019;46.090;6.350;2023-08-31T13:18:54;7.57;;;2.40;;
64609;SDS011;51019;46.090;6.350;2023-08-31T13:21:21;8.50;;;2.30;;
64609;SDS011;51019;46.090;6.350;2023-08-31T13:23:48;8.45;;;2.30;;
64609;SDS011;51019;46.090;6.350;2023-08-31T13:26:15;7.97;;;2.08;;
64609;SDS011;51019;46.090;6.350;2023-08-31T13:28:43;7.60;;;2.25;;
64609;SDS011;51019;46.090;6.350;2023-08-31T13:31:10;7.32;;;1.88;;
64609;SDS011;51019;46.090;6.350;2023-08-31T13:33:39;7.55;;;2.03;;
64609;SDS011;51019;46.090;6.350;2023-08-31T13:36:06;5.90;;;1.90;;
64609;SDS011;51019;46.090;6.350;2023-08-31T13:38:34;10.05;;;2.20;;
64609;SDS011;51019;46.090;6.350;2023-08-31T13:41:01;9.18;;;2.08;;
64609;SDS011;51019;46.090;6.350;2023-08-31T13:43:28;10.48;;;2.40;;
64609;SDS011;51019;46.090;6.350;2023-08-31T13:45:55;7.90;;;2.00;;
64609;SDS011;51019;46.090;6.350;2023-08-31T13:48:23;6.68;;;1.92;;
64609;SDS011;51019;46.090;6.350;2023-08-31T13:50:51;12.18;;;2.42;;
64609;SDS011;51019;46.090;6.350;2023-08-31T13:53:19;8.43;;;2.40;;
64609;SDS011;51019;46.090;6.350;2023-08-31T13:55:46;7.43;;;2.10;;
64609;SDS011;51019;46.090;6.350;2023-08-31T13:58:13;9.82;;;2.50;;
64609;SDS011;51019;46.090;6.350;2023-08-31T14:00:40;8.45;;;2.10;;
64609;SDS011;51019;46.090;6.350;2023-08-31T14:03:07;8.80;;;2.30;;
64609;SDS011;51019;46.090;6.350;2023-08-31T14:05:34;8.30;;;2.40;;
64609;SDS011;51019;46.090;6.350;2023-08-31T14:08:03;8.43;;;2.20;;
64609;SDS011;51019;46.090;6.350;2023-08-31T14:10:31;8.13;;;2.40;;
64609;SDS011;51019;46.090;6.350;2023-08-31T14:12:59;7.47;;;2.25;;
64609;SDS011;51019;46.090;6.350;2023-08-31T14:15:26;10.38;;;2.28;;
64609;SDS011;51019;46.090;6.350;2023-08-31T14:17:53;8.63;;;2.55;;
64609;SDS011;51019;46.090;6.350;2023-08-31T14:20:21;7.35;;;2.13;;
64609;SDS011;51019;46.090;6.350;2023-08-31T14:22:48;10.27;;;2.08;;
64609;SDS011;51019;46.090;6.350;2023-08-31T14:25:17;8.63;;;2.35;;
64609;SDS011;51019;46.090;6.350;2023-08-31T14:27:46;11.88;;;2.42;;
64609;SDS011;51019;46.090;6.350;2023-08-31T14:30:13;7.38;;;2.13;;
64609;SDS011;51019;46.090;6.350;2023-08-31T14:32:41;8.10;;;2.20;;
64609;SDS011;51019;46.090;6.350;2023-08-31T14:35:08;8.07;;;1.92;;
64609;SDS011;51019;46.090;6.350;2023-08-31T14:37:35;10.38;;;2.15;;
64609;SDS011;51019;46.090;6.350;2023-08-31T14:40:02;8.32;;;2.05;;
64609;SDS011;51019;46.090;6.350;2023-08-31T14:42:34;7.30;;;2.08;;
64609;SDS011;51019;46.090;6.350;2023-08-31T14:45:02;8.48;;;2.13;;
64609;SDS011;51019;46.090;6.350;2023-08-31T14:47:30;8.38;;;2.30;;
64609;SDS011;51019;46.090;6.350;2023-08-31T14:49:57;10.57;;;2.20;;